Time;durP1;ratioP1;P1;durP2;ratioP2;P2;SDS_P1;SDS_P2;PMS_P1;PMS_P2;Temp;Humidity;BMP_temperature;BMP_pressure;BME280_temperature;BME280_humidity;BME280_pressure;Samples;Min_cycle;Max_cycle;Signal;HPM_P1;HPM_P2
2021/12/15 00:01:34;;;;;;;0.00;0.00;;;7.30;99.90;;;;;;5028041;28;20033;-69
2021/12/15 00:04:00;;;;;;;0.10;0.10;;;7.30;99.90;;;;;;5028631;28;20021;-69
2021/12/15 00:06:26;;;;;;;0.10;0.10;;;7.30;99.90;;;;;;5030719;28;20026;-70
2021/12/15 00:08:55;;;;;;;0.47;0.45;;;7.30;99.90;;;;;;5029259;28;20559;-70
2021/12/15 00:11:22;;;;;;;0.10;0.10;;;7.30;99.90;;;;;;5028041;28;20108;-69
2021/12/15 00:13:50;;;;;;;0.28;0.28;;;7.40;99.90;;;;;;5029374;28;20021;-69
2021/12/15 00:16:17;;;;;;;0.10;0.10;;;7.30;99.90;;;;;;5023347;28;20037;-67
2021/12/15 00:18:44;;;;;;;0.10;0.10;;;7.20;99.90;;;;;;5031694;28;20040;-69
2021/12/15 00:21:13;;;;;;;0.20;0.20;;;7.20;99.90;;;;;;5028323;28;20356;-68
2021/12/15 00:23:39;;;;;;;0.13;0.13;;;7.20;99.90;;;;;;5027316;28;20038;-68
2021/12/15 00:26:05;;;;;;;0.10;0.10;;;7.30;99.90;;;;;;5022745;28;20048;-69
2021/12/15 00:28:32;;;;;;;1.70;1.15;;;7.40;99.90;;;;;;5027031;28;20481;-70
2021/12/15 00:30:58;;;;;;;0.10;0.10;;;7.20;99.90;;;;;;5028715;28;20053;-69
2021/12/15 00:33:24;;;;;;;0.10;0.10;;;7.20;99.90;;;;;;5028844;28;20084;-70
2021/12/15 00:35:50;;;;;;;0.10;0.10;;;7.10;99.90;;;;;;5027500;28;20083;-70
2021/12/15 00:38:17;;;;;;;0.15;0.15;;;7.20;99.90;;;;;;5028069;28;20038;-69
2021/12/15 00:40:43;;;;;;;0.10;0.10;;;7.20;99.90;;;;;;5027206;28;20144;-70
2021/12/15 00:43:09;;;;;;;1.08;1.05;;;7.20;99.90;;;;;;5028301;28;20048;-69
2021/12/15 00:45:38;;;;;;;0.90;0.90;;;7.20;99.90;;;;;;5028354;28;20104;-68
2021/12/15 00:48:04;;;;;;;0.10;0.10;;;7.30;99.90;;;;;;5037832;28;20048;-69
2021/12/15 00:50:32;;;;;;;0.10;0.10;;;7.20;99.90;;;;;;5028148;28;20045;-81
2021/12/15 00:52:59;;;;;;;0.30;0.30;;;7.00;99.90;;;;;;5031335;28;20512;-70
2021/12/15 00:55:27;;;;;;;0.10;0.10;;;7.10;99.90;;;;;;5029694;28;20493;-72
2021/12/15 00:57:53;;;;;;;0.10;0.10;;;7.10;99.90;;;;;;5025670;28;20044;-73
2021/12/15 01:00:26;;;;;;;4.38;2.75;;;7.20;99.90;;;;;;5024290;28;20389;-66
2021/12/15 01:02:53;;;;;;;2.00;1.13;;;7.20;99.90;;;;;;5018163;28;20605;-67
2021/12/15 01:05:24;;;;;;;0.10;0.10;;;7.20;99.90;;;;;;5026122;28;20433;-68
2021/12/15 01:07:50;;;;;;;0.10;0.10;;;7.10;99.90;;;;;;5024741;28;20494;-67
2021/12/15 01:10:22;;;;;;;0.20;0.20;;;7.10;99.90;;;;;;5017898;28;20087;-66
2021/12/15 01:21:06;;;;;;;0.10;0.10;;;7.30;99.90;;;;;;5019428;28;20060;-67
2021/12/15 01:23:32;;;;;;;1.98;1.88;;;7.30;99.90;;;;;;5021791;28;20029;-66
2021/12/15 01:26:07;;;;;;;0.80;0.75;;;7.30;99.90;;;;;;5026223;28;20493;-68
2021/12/15 01:28:33;;;;;;;0.98;0.98;;;7.40;99.90;;;;;;5019790;28;20068;-66
2021/12/15 01:31:00;;;;;;;0.10;0.10;;;7.30;99.90;;;;;;5020726;28;20037;-67
2021/12/15 01:33:27;;;;;;;0.10;0.10;;;7.40;99.90;;;;;;5019320;28;20088;-67
2021/12/15 01:35:55;;;;;;;0.22;0.22;;;7.40;99.90;;;;;;5021364;28;20394;-67
2021/12/15 01:38:24;;;;;;;0.10;0.10;;;7.40;99.90;;;;;;5025022;28;20034;-67
2021/12/15 01:40:50;;;;;;;2.60;2.20;;;7.40;99.90;;;;;;5024387;28;20036;-66
2021/12/15 01:43:32;;;;;;;0.10;0.10;;;7.40;99.90;;;;;;5020183;28;20398;-67
2021/12/15 01:48:59;;;;;;;0.13;0.13;;;7.40;99.90;;;;;;5021495;28;20120;-67
2021/12/15 01:51:25;;;;;;;0.52;0.52;;;7.30;99.90;;;;;;5014581;28;20029;-67
2021/12/15 01:53:50;;;;;;;0.10;0.10;;;7.20;99.90;;;;;;5025371;28;20031;-68
2021/12/15 01:56:16;;;;;;;0.32;0.32;;;7.30;99.90;;;;;;5022939;28;20053;-67
2021/12/15 01:58:42;;;;;;;1.42;1.33;;;7.30;99.90;;;;;;5019609;28;20420;-67
2021/12/15 02:01:09;;;;;;;0.35;0.35;;;7.40;99.90;;;;;;5022536;28;20045;-68
2021/12/15 02:03:37;;;;;;;3.70;3.42;;;7.40;99.90;;;;;;5024829;28;20030;-66
2021/12/15 02:06:04;;;;;;;0.00;0.00;;;7.30;99.90;;;;;;5025455;28;20029;-67
2021/12/15 02:08:30;;;;;;;0.10;0.10;;;7.40;99.90;;;;;;5021165;28;20026;-67
2021/12/15 02:10:56;;;;;;;0.05;0.05;;;7.40;99.90;;;;;;5020403;28;20032;-66
2021/12/15 02:13:24;;;;;;;0.22;0.22;;;7.40;99.90;;;;;;5021078;28;20026;-69
2021/12/15 02:15:53;;;;;;;0.35;0.35;;;7.50;99.90;;;;;;5021114;28;20470;-67
2021/12/15 02:18:25;;;;;;;0.10;0.10;;;7.40;99.90;;;;;;5020999;28;20105;-67
2021/12/15 02:21:01;;;;;;;0.10;0.10;;;7.30;99.90;;;;;;5025537;28;20033;-67
2021/12/15 02:23:36;;;;;;;0.00;0.00;;;7.30;99.90;;;;;;5016362;28;20033;-67
2021/12/15 02:26:08;;;;;;;0.00;0.00;;;7.30;99.90;;;;;;5020930;28;20022;-66
2021/12/15 02:28:37;;;;;;;0.10;0.10;;;7.30;99.90;;;;;;5021654;28;20155;-66
2021/12/15 02:31:16;;;;;;;0.30;0.30;;;7.30;99.90;;;;;;5020564;28;20036;-68
2021/12/15 02:34:07;;;;;;;0.10;0.10;;;7.20;99.90;;;;;;5021039;28;20021;-67
2021/12/15 02:39:18;;;;;;;0.10;0.10;;;7.20;99.90;;;;;;5020538;28;20524;-68
2021/12/15 02:41:45;;;;;;;0.10;0.10;;;7.30;99.90;;;;;;5020023;28;20041;-67
2021/12/15 02:44:20;;;;;;;0.30;0.30;;;7.30;99.90;;;;;;5017870;28;20044;-68
2021/12/15 02:46:48;;;;;;;0.10;0.10;;;7.40;99.90;;;;;;5020828;28;20466;-68
2021/12/15 02:49:19;;;;;;;1.92;1.77;;;7.40;99.90;;;;;;5017107;28;20038;-67
2021/12/15 02:51:47;;;;;;;0.10;0.10;;;7.50;99.90;;;;;;5018822;28;20473;-65
2021/12/15 02:54:15;;;;;;;0.10;0.10;;;7.30;99.90;;;;;;5034484;28;20056;-66
2021/12/15 02:56:43;;;;;;;0.40;0.40;;;7.40;99.90;;;;;;5021051;28;20018;-68
2021/12/15 02:59:11;;;;;;;0.13;0.13;;;7.40;99.90;;;;;;5019148;28;20450;-68
2021/12/15 03:04:29;;;;;;;0.10;0.10;;;7.40;99.90;;;;;;5017143;28;20029;-66
2021/12/15 03:07:07;;;;;;;0.10;0.10;;;7.30;99.90;;;;;;5021504;28;20033;-69
2021/12/15 03:17:28;;;;;;;0.10;0.10;;;7.30;99.90;;;;;;5018709;28;20394;-67
2021/12/15 03:19:54;;;;;;;0.10;0.10;;;7.40;99.90;;;;;;5019444;28;20034;-68
2021/12/15 03:22:20;;;;;;;0.10;0.10;;;7.40;99.90;;;;;;5020111;28;20342;-67
2021/12/15 03:24:46;;;;;;;0.15;0.15;;;7.30;99.90;;;;;;5027979;28;20038;-68
2021/12/15 03:27:18;;;;;;;0.25;0.25;;;7.20;99.90;;;;;;5030248;28;20025;-67
2021/12/15 03:35:35;;;;;;;0.22;0.22;;;7.30;99.90;;;;;;5021851;28;20048;-65
2021/12/15 03:38:02;;;;;;;0.10;0.10;;;7.30;99.90;;;;;;5025761;28;20151;-69
2021/12/15 03:40:41;;;;;;;0.00;0.00;;;7.40;99.90;;;;;;5023105;28;20076;-67
2021/12/15 03:43:13;;;;;;;0.20;0.20;;;7.40;99.90;;;;;;5033180;28;20382;-67
2021/12/15 03:45:41;;;;;;;0.10;0.10;;;7.40;99.90;;;;;;5027181;28;20034;-67
2021/12/15 03:48:11;;;;;;;0.15;0.15;;;7.30;99.90;;;;;;5026962;28;20034;-69
2021/12/15 03:50:38;;;;;;;0.10;0.10;;;7.30;99.90;;;;;;5027038;28;20037;-67
2021/12/15 03:53:05;;;;;;;0.85;0.85;;;7.40;99.90;;;;;;5021363;28;20025;-68
2021/12/15 03:55:33;;;;;;;0.10;0.10;;;7.50;99.90;;;;;;5021896;28;20035;-68
2021/12/15 03:58:00;;;;;;;0.32;0.32;;;7.70;99.90;;;;;;5025354;28;20474;-67
2021/12/15 04:00:28;;;;;;;0.10;0.10;;;7.40;99.90;;;;;;5026379;28;20083;-68
2021/12/15 04:02:55;;;;;;;0.10;0.10;;;7.50;99.90;;;;;;5018573;28;20099;-67
2021/12/15 04:05:22;;;;;;;0.10;0.10;;;7.40;99.90;;;;;;5021186;28;20033;-68
2021/12/15 04:07:50;;;;;;;0.10;0.10;;;7.40;99.90;;;;;;5027448;28;20025;-68
2021/12/15 04:10:21;;;;;;;0.10;0.10;;;7.40;99.90;;;;;;5019760;28;20049;-67
2021/12/15 04:12:47;;;;;;;1.00;1.00;;;7.40;99.90;;;;;;5017636;28;20493;-67
2021/12/15 04:17:51;;;;;;;0.10;0.10;;;7.50;99.90;;;;;;5025273;28;20029;-67
2021/12/15 04:20:20;;;;;;;0.10;0.10;;;7.60;99.90;;;;;;5018224;28;20025;-69
2021/12/15 04:22:47;;;;;;;0.10;0.10;;;7.50;99.90;;;;;;5020087;28;20032;-65
2021/12/15 04:25:21;;;;;;;0.13;0.13;;;7.50;99.90;;;;;;5034258;28;20478;-68
2021/12/15 04:28:10;;;;;;;0.13;0.13;;;7.60;99.90;;;;;;5020590;28;20029;-66
2021/12/15 04:30:46;;;;;;;0.10;0.10;;;7.60;99.90;;;;;;5021713;28;20028;-66
2021/12/15 04:33:31;;;;;;;0.10;0.10;;;7.60;99.90;;;;;;5020294;28;20026;-67
2021/12/15 04:35:59;;;;;;;0.10;0.10;;;7.50;99.90;;;;;;5007579;28;20726;-66
2021/12/15 04:38:27;;;;;;;0.85;0.85;;;7.50;99.90;;;;;;5022534;28;20036;-68
2021/12/15 04:40:54;;;;;;;0.10;0.10;;;7.50;99.90;;;;;;5021548;28;20025;-67
2021/12/15 04:43:20;;;;;;;0.10;0.10;;;7.50;99.90;;;;;;5022658;28;20451;-67
2021/12/15 04:45:46;;;;;;;0.10;0.10;;;7.50;99.90;;;;;;5023930;28;20038;-66
2021/12/15 04:48:12;;;;;;;0.10;0.10;;;7.50;99.90;;;;;;5021423;28;20037;-67
2021/12/15 04:50:38;;;;;;;0.10;0.10;;;7.50;99.90;;;;;;5017689;28;20436;-67
2021/12/15 04:53:06;;;;;;;0.10;0.10;;;7.50;99.90;;;;;;5015123;28;20674;-67
2021/12/15 04:55:34;;;;;;;0.10;0.10;;;7.50;99.90;;;;;;5021076;28;20112;-68
2021/12/15 04:58:03;;;;;;;0.10;0.10;;;7.50;99.90;;;;;;5022331;28;20194;-66
2021/12/15 05:00:33;;;;;;;1.08;1.08;;;7.50;99.90;;;;;;5021435;28;20053;-68
2021/12/15 05:02:59;;;;;;;0.10;0.10;;;7.50;99.90;;;;;;5029036;28;20022;-65
2021/12/15 05:05:27;;;;;;;0.40;0.40;;;7.60;99.90;;;;;;5031168;28;20056;-66
2021/12/15 05:07:53;;;;;;;0.10;0.10;;;7.60;99.90;;;;;;5029370;28;20040;-66
2021/12/15 05:10:20;;;;;;;0.10;0.10;;;7.60;99.90;;;;;;5029694;28;20026;-67
2021/12/15 05:12:46;;;;;;;0.10;0.10;;;7.60;99.90;;;;;;5021979;28;20029;-68
2021/12/15 05:15:13;;;;;;;0.10;0.10;;;7.60;99.90;;;;;;5029177;28;20025;-66
2021/12/15 05:17:39;;;;;;;0.20;0.20;;;7.60;99.90;;;;;;5021163;28;20093;-68
2021/12/15 05:20:08;;;;;;;2.65;1.88;;;7.50;99.90;;;;;;5019699;28;20029;-69
2021/12/15 05:22:35;;;;;;;0.68;0.68;;;7.40;99.90;;;;;;5025613;28;20025;-66
2021/12/15 05:25:03;;;;;;;0.10;0.10;;;7.40;99.90;;;;;;5025318;28;20044;-67
2021/12/15 05:27:29;;;;;;;0.10;0.10;;;7.40;99.90;;;;;;5022510;28;20064;-68
2021/12/15 05:29:57;;;;;;;0.88;0.82;;;7.30;99.90;;;;;;5021301;28;20121;-66
2021/12/15 05:32:23;;;;;;;0.22;0.22;;;7.30;99.90;;;;;;5022180;28;20389;-67
2021/12/15 05:34:52;;;;;;;0.08;0.08;;;7.40;99.90;;;;;;5031016;28;20037;-66
2021/12/15 05:37:21;;;;;;;0.10;0.10;;;7.40;99.90;;;;;;5023524;28;20022;-68
2021/12/15 05:39:49;;;;;;;0.10;0.10;;;7.50;99.90;;;;;;5027894;28;20068;-67
2021/12/15 05:42:17;;;;;;;0.10;0.10;;;7.50;99.90;;;;;;5023251;28;20636;-66
2021/12/15 05:44:43;;;;;;;0.10;0.10;;;7.40;99.90;;;;;;5028637;28;20033;-69
2021/12/15 05:47:10;;;;;;;2.15;1.95;;;7.40;99.90;;;;;;5020499;28;20089;-66
2021/12/15 05:49:35;;;;;;;0.95;0.95;;;7.40;99.90;;;;;;5027030;28;20030;-67
2021/12/15 05:52:03;;;;;;;0.10;0.10;;;7.40;99.90;;;;;;5020954;28;20033;-66
2021/12/15 05:54:29;;;;;;;0.10;0.10;;;7.40;99.90;;;;;;5022287;28;20040;-67
2021/12/15 05:56:56;;;;;;;0.10;0.10;;;7.40;99.90;;;;;;5022440;28;20103;-66
2021/12/15 05:59:24;;;;;;;0.10;0.10;;;7.40;99.90;;;;;;5021331;28;20079;-68
2021/12/15 06:01:50;;;;;;;0.10;0.10;;;7.40;99.90;;;;;;5020429;28;20108;-66
2021/12/15 06:04:16;;;;;;;0.10;0.10;;;7.40;99.90;;;;;;5024397;28;20120;-66
2021/12/15 06:06:42;;;;;;;0.10;0.10;;;7.40;99.90;;;;;;5016932;28;20041;-67
2021/12/15 06:09:10;;;;;;;0.13;0.13;;;7.30;99.90;;;;;;5022676;28;20036;-68
2021/12/15 06:11:39;;;;;;;0.30;0.30;;;7.40;99.90;;;;;;5050684;28;20045;-67
2021/12/15 06:14:06;;;;;;;0.10;0.10;;;7.40;99.90;;;;;;5021648;28;20041;-67
2021/12/15 06:16:33;;;;;;;0.10;0.10;;;7.50;99.90;;;;;;5016661;28;20482;-66
2021/12/15 06:19:00;;;;;;;0.10;0.10;;;7.50;99.90;;;;;;5024164;28;20025;-69
2021/12/15 06:21:26;;;;;;;0.10;0.10;;;7.50;99.90;;;;;;5026317;28;20436;-67
2021/12/15 06:23:52;;;;;;;0.10;0.10;;;7.50;99.90;;;;;;5025517;28;20030;-68
2021/12/15 06:26:19;;;;;;;0.10;0.10;;;7.50;99.90;;;;;;5020879;28;20064;-69
2021/12/15 06:28:45;;;;;;;0.10;0.10;;;7.50;99.90;;;;;;5021339;28;20116;-68
2021/12/15 06:31:13;;;;;;;0.17;0.17;;;7.50;99.90;;;;;;5018419;28;20062;-68
2021/12/15 06:33:40;;;;;;;0.10;0.10;;;7.50;99.90;;;;;;5020216;28;20470;-69
2021/12/15 06:36:08;;;;;;;0.10;0.10;;;7.50;99.90;;;;;;5021991;28;20021;-67
2021/12/15 06:38:40;;;;;;;1.05;1.02;;;7.50;99.90;;;;;;5020199;28;20039;-66
2021/12/15 06:41:08;;;;;;;0.10;0.10;;;7.50;99.90;;;;;;5018820;28;20108;-69
2021/12/15 06:43:36;;;;;;;0.10;0.10;;;7.50;99.90;;;;;;5022227;28;20029;-66
2021/12/15 07:00:29;;;;;;;0.85;0.85;;;7.50;99.90;;;;;;4987046;28;20034;-71
2021/12/15 07:02:56;;;;;;;0.10;0.10;;;7.50;99.90;;;;;;4987874;28;20185;-72
2021/12/15 07:05:24;;;;;;;0.10;0.10;;;7.50;99.90;;;;;;4986067;28;20053;-72
2021/12/15 07:07:51;;;;;;;0.10;0.10;;;7.50;99.90;;;;;;4987301;28;20498;-72
2021/12/15 07:10:22;;;;;;;0.10;0.10;;;7.60;99.90;;;;;;4982547;28;20073;-72
2021/12/15 07:12:49;;;;;;;0.10;0.10;;;7.60;99.90;;;;;;4982355;28;20109;-72
2021/12/15 07:15:15;;;;;;;0.20;0.20;;;7.50;99.90;;;;;;4977965;28;20093;-72
2021/12/15 07:17:44;;;;;;;0.10;0.10;;;7.50;99.90;;;;;;4983265;28;20458;-73
2021/12/15 07:23:18;;;;;;;0.10;0.10;;;7.30;99.90;;;;;;4978737;28;20129;-72
2021/12/15 07:25:48;;;;;;;0.10;0.10;;;7.40;99.90;;;;;;4978165;28;20671;-73
2021/12/15 07:28:19;;;;;;;0.10;0.10;;;7.30;99.90;;;;;;4979960;28;20050;-72
2021/12/15 07:30:46;;;;;;;0.15;0.15;;;7.30;99.90;;;;;;4984537;28;20045;-72
2021/12/15 07:33:12;;;;;;;0.10;0.10;;;7.40;99.90;;;;;;4977871;28;20031;-75
2021/12/15 07:35:38;;;;;;;0.15;0.15;;;7.40;99.90;;;;;;4977441;28;20505;-72
2021/12/15 07:38:05;;;;;;;0.10;0.10;;;7.40;99.90;;;;;;4978375;28;20101;-72
2021/12/15 07:40:31;;;;;;;0.10;0.10;;;7.40;99.90;;;;;;4979608;28;20066;-73
2021/12/15 07:45:28;;;;;;;0.10;0.10;;;7.40;99.90;;;;;;4975224;28;20066;-74
2021/12/15 07:47:59;;;;;;;0.10;0.10;;;7.30;99.90;;;;;;4983146;28;20115;-72
2021/12/15 07:50:26;;;;;;;0.10;0.10;;;7.30;99.90;;;;;;4986451;28;20129;-73
2021/12/15 07:52:52;;;;;;;0.10;0.10;;;7.30;99.90;;;;;;4978950;28;20168;-72
2021/12/15 07:55:20;;;;;;;0.10;0.10;;;7.30;99.90;;;;;;4981975;28;20441;-71
2021/12/15 07:57:46;;;;;;;0.10;0.10;;;7.30;99.90;;;;;;4984072;28;20109;-74
2021/12/15 08:00:15;;;;;;;0.10;0.10;;;7.30;99.90;;;;;;4974037;28;20045;-72
2021/12/15 08:02:41;;;;;;;0.15;0.15;;;7.30;99.90;;;;;;4986625;28;20023;-71
2021/12/15 08:05:07;;;;;;;0.20;0.20;;;7.30;99.90;;;;;;4987997;28;20609;-72
2021/12/15 08:07:33;;;;;;;0.63;0.63;;;7.30;99.90;;;;;;4987083;28;20042;-71
2021/12/15 08:09:59;;;;;;;0.10;0.10;;;7.40;99.90;;;;;;4986595;28;20415;-72
2021/12/15 08:12:27;;;;;;;0.95;0.95;;;7.30;99.90;;;;;;4989818;28;20499;-73
2021/12/15 08:14:54;;;;;;;0.73;0.73;;;7.30;99.90;;;;;;4988609;28;20034;-72
2021/12/15 08:17:20;;;;;;;0.10;0.10;;;7.30;99.90;;;;;;4990636;28;20022;-72
2021/12/15 08:19:46;;;;;;;0.10;0.10;;;7.30;99.90;;;;;;4988220;28;20026;-71
2021/12/15 08:22:11;;;;;;;0.40;0.40;;;7.30;99.90;;;;;;4988620;28;20030;-73
2021/12/15 08:24:37;;;;;;;0.10;0.10;;;7.30;99.90;;;;;;4991470;28;20117;-73
2021/12/15 08:27:03;;;;;;;0.47;0.47;;;7.30;99.90;;;;;;4990168;28;20117;-71
2021/12/15 08:29:29;;;;;;;0.35;0.35;;;7.30;99.90;;;;;;4990142;28;20034;-72
2021/12/15 08:31:54;;;;;;;0.30;0.30;;;7.30;99.90;;;;;;4991873;28;20629;-71
2021/12/15 08:34:20;;;;;;;0.10;0.10;;;7.30;99.90;;;;;;4991129;28;20033;-72
2021/12/15 08:36:49;;;;;;;0.10;0.10;;;7.40;99.90;;;;;;4987890;28;20053;-73
2021/12/15 08:39:15;;;;;;;0.10;0.10;;;7.30;99.90;;;;;;4991256;28;20036;-74
2021/12/15 08:41:41;;;;;;;0.10;0.10;;;7.30;99.90;;;;;;4990096;28;20154;-71
2021/12/15 08:44:08;;;;;;;0.10;0.10;;;7.30;99.90;;;;;;4989667;28;20126;-72
2021/12/15 08:46:42;;;;;;;0.20;0.20;;;7.40;99.90;;;;;;4989317;28;20034;-72
2021/12/15 08:49:12;;;;;;;0.10;0.10;;;7.40;99.90;;;;;;4985318;28;20031;-73
2021/12/15 08:51:38;;;;;;;0.25;0.25;;;7.50;99.90;;;;;;4988237;28;20033;-73
2021/12/15 08:54:08;;;;;;;0.10;0.10;;;7.50;99.90;;;;;;4986338;28;20041;-72
2021/12/15 08:56:35;;;;;;;0.10;0.10;;;7.50;99.90;;;;;;4991433;28;20507;-72
2021/12/15 08:59:04;;;;;;;0.43;0.43;;;7.60;99.90;;;;;;4987631;28;20505;-70
2021/12/15 09:01:30;;;;;;;0.10;0.10;;;7.70;99.90;;;;;;4989622;28;20561;-72
2021/12/15 09:03:56;;;;;;;0.10;0.10;;;7.60;99.90;;;;;;4988531;28;20122;-72
2021/12/15 09:06:23;;;;;;;0.00;0.00;;;7.50;99.90;;;;;;4984759;28;20106;-72
2021/12/15 09:08:49;;;;;;;0.10;0.10;;;7.50;99.90;;;;;;4988839;28;20045;-70
2021/12/15 09:11:18;;;;;;;0.10;0.10;;;7.50;99.90;;;;;;4983511;28;20026;-72
2021/12/15 09:13:47;;;;;;;0.10;0.10;;;7.50;99.90;;;;;;4987607;28;20086;-71
2021/12/15 09:16:13;;;;;;;0.10;0.10;;;7.50;99.90;;;;;;4986415;28;20517;-71
2021/12/15 09:18:41;;;;;;;0.60;0.60;;;7.50;99.90;;;;;;4982330;28;20057;-73
2021/12/15 09:21:09;;;;;;;0.10;0.10;;;7.50;99.90;;;;;;4983174;28;20527;-72
2021/12/15 09:23:35;;;;;;;1.02;0.95;;;7.50;99.90;;;;;;4986278;28;20101;-73
2021/12/15 09:26:03;;;;;;;0.10;0.10;;;7.70;99.90;;;;;;4982063;28;20031;-73
2021/12/15 09:28:32;;;;;;;0.10;0.10;;;7.60;99.90;;;;;;4987097;28;20077;-71
2021/12/15 09:30:59;;;;;;;0.10;0.10;;;7.60;99.90;;;;;;4988857;28;20081;-73
2021/12/15 09:33:32;;;;;;;0.63;0.63;;;7.60;99.90;;;;;;4986044;28;20027;-74
2021/12/15 09:35:59;;;;;;;0.25;0.25;;;7.70;99.90;;;;;;4987863;28;20026;-74
2021/12/15 09:38:25;;;;;;;0.10;0.10;;;7.70;99.90;;;;;;4989221;28;20073;-73
2021/12/15 09:40:53;;;;;;;0.10;0.10;;;7.50;99.90;;;;;;4987588;28;20035;-72
2021/12/15 09:43:20;;;;;;;0.10;0.10;;;7.50;99.90;;;;;;4987510;28;20037;-73
2021/12/15 10:10:39;;;;;;;0.30;0.30;;;7.80;99.90;;;;;;4987240;28;20046;-73
2021/12/15 10:18:35;;;;;;;0.10;0.10;;;7.70;99.90;;;;;;4988332;28;20053;-72
2021/12/15 10:21:02;;;;;;;0.10;0.10;;;7.60;99.90;;;;;;4987134;28;20099;-73
2021/12/15 10:23:36;;;;;;;0.00;0.00;;;7.60;99.90;;;;;;4984147;28;20169;-70
2021/12/15 10:26:03;;;;;;;0.10;0.10;;;7.60;99.90;;;;;;4982821;28;20030;-73
2021/12/15 10:28:31;;;;;;;0.22;0.22;;;7.60;99.90;;;;;;4988094;28;20042;-72
2021/12/15 10:31:06;;;;;;;0.00;0.00;;;7.70;99.90;;;;;;4987311;28;20491;-72
2021/12/15 10:33:33;;;;;;;0.20;0.20;;;7.70;99.90;;;;;;4982048;28;20030;-72
2021/12/15 10:36:01;;;;;;;0.40;0.40;;;7.80;99.90;;;;;;4982507;28;20030;-71
2021/12/15 10:38:30;;;;;;;0.10;0.10;;;7.80;99.90;;;;;;4988445;28;20029;-71
2021/12/15 10:41:17;;;;;;;0.10;0.10;;;7.70;99.90;;;;;;4985386;28;20030;-70
2021/12/15 10:43:49;;;;;;;0.10;0.10;;;7.70;99.90;;;;;;4988683;28;20057;-71
2021/12/15 10:46:36;;;;;;;0.10;0.10;;;7.60;99.90;;;;;;4987286;28;20056;-70
2021/12/15 10:49:13;;;;;;;0.10;0.10;;;7.70;99.90;;;;;;4985149;28;20065;-75
2021/12/15 10:52:02;;;;;;;0.00;0.00;;;7.70;99.90;;;;;;4985132;28;20026;-75
2021/12/15 10:54:44;;;;;;;0.10;0.10;;;7.80;99.90;;;;;;4986337;28;20480;-74
2021/12/15 10:57:18;;;;;;;0.10;0.10;;;7.80;99.90;;;;;;4982896;28;20034;-72
2021/12/15 10:59:48;;;;;;;0.10;0.10;;;7.70;99.90;;;;;;4986309;28;20033;-74
2021/12/15 11:02:25;;;;;;;0.10;0.10;;;7.70;99.90;;;;;;4988820;28;20030;-74
2021/12/15 11:04:52;;;;;;;0.10;0.10;;;7.60;99.90;;;;;;4985987;28;20050;-71
2021/12/15 11:07:26;;;;;;;4.28;2.28;;;7.70;99.90;;;;;;4982220;28;20184;-72
2021/12/15 11:10:10;;;;;;;0.10;0.10;;;7.80;99.90;;;;;;4985915;28;20045;-72
2021/12/15 11:12:40;;;;;;;0.10;0.10;;;7.80;99.90;;;;;;4980327;28;20733;-75
2021/12/15 11:15:08;;;;;;;0.00;0.00;;;7.70;99.90;;;;;;4988798;28;20029;-74
2021/12/15 11:17:40;;;;;;;0.10;0.10;;;7.60;99.90;;;;;;4986964;28;20030;-74
2021/12/15 11:20:15;;;;;;;0.10;0.10;;;7.70;99.90;;;;;;4988288;28;20041;-73
2021/12/15 11:22:45;;;;;;;0.10;0.10;;;7.70;99.90;;;;;;4986136;28;20644;-72
2021/12/15 11:25:18;;;;;;;0.10;0.10;;;7.80;99.90;;;;;;4988477;28;20038;-75
2021/12/15 11:27:49;;;;;;;0.10;0.10;;;7.80;99.90;;;;;;4985220;28;20026;-75
2021/12/15 11:30:22;;;;;;;0.10;0.10;;;7.80;99.90;;;;;;4985252;28;20117;-74
2021/12/15 11:32:50;;;;;;;2.28;0.70;;;7.80;99.90;;;;;;4982305;28;20031;-73
2021/12/15 11:35:17;;;;;;;0.00;0.00;;;7.80;99.90;;;;;;4985591;28;20035;-73
2021/12/15 11:38:03;;;;;;;0.10;0.10;;;7.80;99.90;;;;;;4985712;28;20113;-73
2021/12/15 11:40:36;;;;;;;0.10;0.10;;;7.80;99.90;;;;;;4986427;28;20039;-74
2021/12/15 11:43:04;;;;;;;0.10;0.10;;;7.70;99.90;;;;;;4982513;28;20038;-73
2021/12/15 11:45:30;;;;;;;0.10;0.10;;;7.50;99.90;;;;;;4989932;28;20133;-75
2021/12/15 11:48:23;;;;;;;0.10;0.10;;;7.50;99.90;;;;;;4987937;28;20030;-73
2021/12/15 11:50:52;;;;;;;0.10;0.10;;;7.60;99.90;;;;;;4985762;28;20344;-74
2021/12/15 11:53:51;;;;;;;0.10;0.10;;;7.70;99.90;;;;;;4985449;28;20164;-74
2021/12/15 11:56:27;;;;;;;0.10;0.10;;;7.60;99.90;;;;;;4981567;28;20050;-76
2021/12/15 11:58:59;;;;;;;0.10;0.10;;;7.60;99.90;;;;;;4988699;28;20251;-75
2021/12/15 12:01:44;;;;;;;0.10;0.10;;;7.80;99.90;;;;;;4978563;28;20023;-76
2021/12/15 12:04:16;;;;;;;0.10;0.10;;;7.70;99.90;;;;;;4982269;28;20035;-76
2021/12/15 12:06:44;;;;;;;0.10;0.10;;;7.70;99.90;;;;;;4986545;28;20027;-74
2021/12/15 12:09:10;;;;;;;0.17;0.17;;;7.80;99.90;;;;;;4990822;28;20145;-73
2021/12/15 12:11:40;;;;;;;0.10;0.10;;;7.80;99.90;;;;;;4988616;28;20528;-75
2021/12/15 12:14:16;;;;;;;0.03;0.03;;;7.80;99.90;;;;;;4990340;28;20022;-73
2021/12/15 12:16:42;;;;;;;0.10;0.10;;;7.80;99.90;;;;;;4988708;28;20027;-74
2021/12/15 12:19:10;;;;;;;0.10;0.10;;;7.70;99.90;;;;;;4991659;28;20064;-74
2021/12/15 12:21:37;;;;;;;0.10;0.10;;;7.70;99.90;;;;;;4987610;28;20034;-74
2021/12/15 12:24:03;;;;;;;0.08;0.08;;;7.40;99.90;;;;;;4990864;28;20026;-75
2021/12/15 12:26:31;;;;;;;0.10;0.10;;;7.60;99.90;;;;;;4987027;28;20071;-78
2021/12/15 12:28:58;;;;;;;0.10;0.10;;;7.60;99.90;;;;;;4988053;28;20034;-76
2021/12/15 12:31:24;;;;;;;0.10;0.10;;;7.70;99.90;;;;;;4983443;28;20101;-73
2021/12/15 12:33:51;;;;;;;0.10;0.10;;;7.70;99.90;;;;;;4983448;28;20109;-73
2021/12/15 12:36:20;;;;;;;0.00;0.00;;;7.50;99.90;;;;;;4986902;28;20081;-73
2021/12/15 12:38:53;;;;;;;0.00;0.00;;;7.50;99.90;;;;;;4987261;28;20034;-72
2021/12/15 12:41:27;;;;;;;0.10;0.10;;;7.50;99.90;;;;;;4985236;28;20041;-75
2021/12/15 12:43:54;;;;;;;;;;;7.60;99.90;;;;;;4986916;28;20026;-73
2021/12/15 12:46:36;;;;;;;0.10;0.10;;;7.70;99.90;;;;;;4990662;28;19941;-73
2021/12/15 12:49:28;;;;;;;0.13;0.13;;;7.70;99.90;;;;;;4988052;28;20026;-72
2021/12/15 13:00:29;;;;;;;0.10;0.10;;;7.90;99.90;;;;;;4982006;28;20547;-73
2021/12/15 13:03:05;;;;;;;0.10;0.10;;;7.70;99.90;;;;;;4991274;28;20030;-73
2021/12/15 13:05:55;;;;;;;0.00;0.00;;;7.70;99.90;;;;;;4988166;28;20129;-74
2021/12/15 13:08:38;;;;;;;0.10;0.10;;;7.70;99.90;;;;;;4988508;28;20140;-73
2021/12/15 13:11:15;;;;;;;0.00;0.00;;;7.70;99.90;;;;;;4989982;28;20051;-73
2021/12/15 13:14:11;;;;;;;0.50;0.50;;;7.80;99.90;;;;;;4986804;28;20061;-72
2021/12/15 13:16:52;;;;;;;0.10;0.10;;;7.80;99.90;;;;;;4985677;28;20291;-76
2021/12/15 13:19:30;;;;;;;0.08;0.08;;;7.80;99.90;;;;;;4981028;28;20056;-75
2021/12/15 13:30:47;;;;;;;0.10;0.10;;;7.70;99.90;;;;;;4990572;28;20237;-74
2021/12/15 13:33:27;;;;;;;0.10;0.10;;;7.80;99.90;;;;;;4988765;28;20128;-73
2021/12/15 13:36:04;;;;;;;0.10;0.10;;;7.80;99.90;;;;;;4979901;28;20461;-75
2021/12/15 13:38:35;;;;;;;0.10;0.10;;;7.80;99.90;;;;;;4982633;28;20099;-77
2021/12/15 13:41:36;;;;;;;0.10;0.10;;;7.80;99.90;;;;;;4977807;28;20027;-75
2021/12/15 13:44:20;;;;;;;0.10;0.10;;;7.70;99.90;;;;;;4981160;28;20054;-75
2021/12/15 13:46:53;;;;;;;0.10;0.10;;;7.80;99.90;;;;;;4982691;28;20026;-74
2021/12/15 13:49:22;;;;;;;0.10;0.10;;;7.90;99.90;;;;;;4985570;28;20748;-75
2021/12/15 13:52:05;;;;;;;0.10;0.10;;;7.80;99.90;;;;;;4983794;28;20231;-76
2021/12/15 13:54:34;;;;;;;0.10;0.10;;;7.70;99.90;;;;;;4977682;28;20026;-75
2021/12/15 13:57:11;;;;;;;0.10;0.10;;;7.70;99.90;;;;;;4984642;28;20022;-75
2021/12/15 13:59:45;;;;;;;0.10;0.10;;;7.80;99.90;;;;;;4980774;28;20031;-75
2021/12/15 14:02:21;;;;;;;0.10;0.10;;;7.80;99.90;;;;;;4983034;28;20519;-76
2021/12/15 14:04:59;;;;;;;0.10;0.10;;;7.80;99.90;;;;;;4983765;28;20035;-76
2021/12/15 14:07:31;;;;;;;0.10;0.10;;;7.80;99.90;;;;;;4978634;28;20030;-73
2021/12/15 14:09:59;;;;;;;0.10;0.10;;;7.70;99.90;;;;;;4981938;28;20104;-74
2021/12/15 14:12:49;;;;;;;0.10;0.10;;;7.60;99.90;;;;;;4985717;28;20125;-75
2021/12/15 14:15:37;;;;;;;0.10;0.10;;;7.70;99.90;;;;;;4984727;28;20029;-75
2021/12/15 14:18:14;;;;;;;0.10;0.10;;;7.70;99.90;;;;;;4989876;28;20084;-76
2021/12/15 14:20:48;;;;;;;0.10;0.10;;;7.60;99.90;;;;;;4987572;28;20480;-78
2021/12/15 14:23:21;;;;;;;0.20;0.20;;;7.60;99.90;;;;;;4987717;28;20023;-73
2021/12/15 14:25:48;;;;;;;0.10;0.10;;;7.50;99.90;;;;;;4987384;28;20031;-75
2021/12/15 14:28:27;;;;;;;0.10;0.10;;;7.50;99.90;;;;;;4982617;28;20035;-76
2021/12/15 14:31:00;;;;;;;0.10;0.10;;;7.90;99.90;;;;;;4981339;28;20031;-75
2021/12/15 14:33:30;;;;;;;0.10;0.10;;;7.60;99.90;;;;;;4986169;28;20056;-75
2021/12/15 14:35:59;;;;;;;0.10;0.10;;;7.60;99.90;;;;;;4985735;28;20476;-73
2021/12/15 14:38:52;;;;;;;0.10;0.10;;;7.70;99.90;;;;;;4986220;28;20109;-73
2021/12/15 14:41:29;;;;;;;0.10;0.10;;;7.60;99.90;;;;;;4982913;28;20042;-74
2021/12/15 14:44:06;;;;;;;0.10;0.10;;;7.60;99.90;;;;;;4987447;28;20030;-74
2021/12/15 14:46:35;;;;;;;0.73;0.73;;;7.60;99.90;;;;;;4981848;28;20030;-73
2021/12/15 14:49:03;;;;;;;0.10;0.10;;;7.70;99.90;;;;;;4985569;28;20046;-72
2021/12/15 14:51:29;;;;;;;0.10;0.10;;;7.70;99.90;;;;;;4982210;28;20037;-73
2021/12/15 14:53:57;;;;;;;0.00;0.00;;;7.60;99.90;;;;;;4978775;28;20030;-72